createdAt,value
2018-08-03T00:01:42.686Z,12.27
2018-08-03T00:04:10.986Z,11.73
2018-08-03T00:06:39.162Z,11.17
2018-08-03T00:09:08.926Z,10.53
2018-08-03T00:11:37.123Z,11.30
2018-08-03T00:14:05.302Z,11.33
2018-08-03T00:16:33.587Z,11.30
2018-08-03T00:19:02.029Z,11.47
2018-08-03T00:21:30.473Z,10.80
2018-08-03T00:23:58.820Z,11.33
2018-08-03T00:26:27.043Z,11.10
2018-08-03T00:28:55.301Z,10.93
2018-08-03T00:31:23.547Z,10.97
2018-08-03T00:33:51.729Z,9.47
2018-08-03T00:36:20.004Z,11.77
2018-08-03T00:38:48.202Z,12.13
2018-08-03T00:41:16.459Z,11.33
2018-08-03T00:43:44.688Z,12.00
2018-08-03T00:46:12.901Z,11.23
2018-08-03T00:48:41.139Z,12.77
2018-08-03T00:51:09.393Z,12.07
2018-08-03T00:53:37.623Z,11.00
2018-08-03T00:56:05.968Z,11.43
2018-08-03T00:58:34.177Z,10.80
2018-08-03T01:01:02.373Z,11.57
2018-08-03T01:03:30.548Z,11.40
2018-08-03T01:05:58.708Z,11.50
2018-08-03T01:08:27.055Z,12.93
2018-08-03T01:10:55.258Z,12.73
2018-08-03T01:13:23.431Z,12.37
2018-08-03T01:15:51.597Z,11.63
2018-08-03T01:18:19.754Z,11.30
2018-08-03T01:20:47.940Z,11.10
2018-08-03T01:23:16.091Z,12.10
2018-08-03T01:25:44.328Z,11.03
2018-08-03T01:28:12.482Z,11.63
2018-08-03T01:30:40.654Z,10.67
2018-08-03T01:33:08.877Z,12.53
2018-08-03T01:35:37.059Z,12.77
2018-08-03T01:38:05.301Z,11.20
2018-08-03T01:40:33.448Z,10.67
2018-08-03T01:43:01.626Z,11.40
2018-08-03T01:45:29.826Z,12.10
2018-08-03T01:47:58.038Z,11.03
2018-08-03T01:50:26.389Z,11.47
2018-08-03T01:52:54.571Z,11.97
2018-08-03T01:55:23.002Z,11.77
2018-08-03T01:57:51.284Z,10.47
2018-08-03T02:00:19.822Z,11.67
2018-08-03T02:02:48.089Z,12.10
2018-08-03T02:05:16.297Z,11.13
2018-08-03T02:07:44.269Z,12.40
2018-08-03T02:10:12.558Z,11.77
2018-08-03T02:12:40.769Z,11.20
2018-08-03T02:15:08.964Z,11.97
2018-08-03T02:17:37.154Z,11.93
2018-08-03T02:20:05.766Z,10.70
2018-08-03T02:22:33.935Z,11.40
2018-08-03T02:25:02.083Z,11.60
2018-08-03T02:27:30.251Z,11.73
2018-08-03T02:29:58.494Z,11.23
2018-08-03T02:32:26.753Z,12.17
2018-08-03T02:34:54.941Z,12.70
2018-08-03T02:37:23.239Z,11.93
2018-08-03T02:39:51.488Z,11.87
2018-08-03T02:42:19.838Z,11.13
2018-08-03T02:44:48.071Z,10.80
2018-08-03T02:47:16.278Z,10.87
2018-08-03T02:49:44.507Z,11.37
2018-08-03T02:52:12.716Z,10.83
2018-08-03T02:54:40.951Z,11.77
2018-08-03T02:57:09.218Z,12.57
2018-08-03T02:59:37.533Z,11.00
2018-08-03T03:02:12.338Z,12.47
2018-08-03T03:04:40.543Z,12.30
2018-08-03T03:07:08.740Z,11.33
2018-08-03T03:09:36.940Z,10.50
2018-08-03T03:12:05.146Z,11.37
2018-08-03T03:14:33.345Z,11.20
2018-08-03T03:17:01.543Z,11.20
2018-08-03T03:19:29.818Z,11.17
2018-08-03T03:21:58.039Z,11.20
2018-08-03T03:24:26.246Z,12.67
2018-08-03T03:26:54.446Z,13.27
2018-08-03T03:29:22.626Z,12.30
2018-08-03T03:31:50.570Z,14.07
2018-08-03T03:34:18.824Z,12.43
2018-08-03T03:36:47.037Z,12.33
2018-08-03T03:39:15.262Z,11.20
2018-08-03T03:41:43.469Z,12.63
2018-08-03T03:44:11.678Z,12.27
2018-08-03T03:46:39.894Z,13.17
2018-08-03T03:49:08.075Z,12.20
2018-08-03T03:51:36.262Z,10.60
2018-08-03T03:54:04.518Z,10.60
2018-08-03T03:56:32.712Z,10.10
2018-08-03T03:59:00.934Z,10.63
2018-08-03T04:01:29.146Z,11.50
2018-08-03T04:03:57.361Z,11.23
2018-08-03T04:06:25.537Z,10.40
2018-08-03T04:08:53.765Z,10.70
2018-08-03T04:11:21.947Z,10.63
2018-08-03T04:13:50.126Z,12.00
2018-08-03T04:16:18.080Z,10.80
2018-08-03T04:18:46.321Z,10.40
2018-08-03T04:21:14.561Z,10.80
2018-08-03T04:23:42.816Z,9.70
2018-08-03T04:26:11.101Z,10.13
2018-08-03T04:28:39.321Z,10.23
2018-08-03T04:31:07.534Z,12.30
2018-08-03T04:33:35.822Z,13.23
2018-08-03T04:36:04.058Z,12.87
2018-08-03T04:38:32.353Z,11.53
2018-08-03T04:41:00.563Z,14.30
2018-08-03T04:43:28.748Z,14.60
2018-08-03T04:45:56.998Z,14.20
2018-08-03T04:48:25.228Z,15.33
2018-08-03T04:50:53.730Z,15.40
2018-08-03T04:53:21.940Z,15.30
2018-08-03T04:55:50.122Z,14.43
2018-08-03T04:58:18.362Z,14.40
2018-08-03T05:00:46.563Z,13.57
2018-08-03T05:03:14.796Z,15.53
2018-08-03T05:05:43.110Z,15.70
2018-08-03T05:08:11.309Z,15.33
2018-08-03T05:10:40.364Z,18.07
2018-08-03T05:13:08.591Z,16.60
2018-08-03T06:37:34.856Z,10.40
2018-08-03T06:40:03.059Z,10.13
2018-08-03T06:42:31.253Z,11.00
2018-08-03T06:44:59.438Z,10.30
2018-08-03T06:47:27.692Z,10.27
2018-08-03T06:49:55.854Z,9.90
2018-08-03T06:52:24.094Z,9.20
2018-08-03T06:54:52.443Z,10.03
2018-08-03T06:57:20.678Z,9.70
2018-08-03T06:59:49.177Z,10.13
2018-08-03T07:02:17.447Z,10.33
2018-08-03T07:04:45.741Z,9.63
2018-08-03T07:07:13.936Z,10.27
2018-08-03T07:09:42.094Z,9.40
2018-08-03T07:12:16.906Z,9.20
2018-08-03T07:14:45.119Z,9.23
2018-08-03T07:17:13.352Z,9.03
2018-08-03T07:19:41.523Z,8.87
2018-08-03T07:22:09.711Z,9.10
2018-08-03T07:24:37.936Z,9.67
2018-08-03T07:27:06.111Z,9.27
2018-08-03T07:29:34.334Z,10.23
2018-08-03T07:32:02.570Z,9.30
2018-08-03T07:34:31.862Z,8.27
2018-08-03T07:37:00.101Z,9.40
2018-08-03T07:39:28.290Z,8.13
2018-08-03T07:41:56.476Z,10.00
2018-08-03T07:44:24.721Z,8.30
2018-08-03T07:46:52.918Z,9.00
2018-08-03T07:49:21.081Z,9.23
2018-08-03T07:51:49.271Z,10.23
2018-08-03T07:54:17.446Z,9.23
2018-08-03T07:56:45.787Z,10.47
2018-08-03T07:59:14.018Z,9.77
2018-08-03T08:01:42.206Z,8.60
2018-08-03T08:04:10.448Z,9.13
2018-08-03T08:06:38.640Z,9.20
2018-08-03T08:09:09.317Z,9.50
2018-08-03T08:11:37.542Z,9.33
2018-08-03T08:14:06.010Z,9.67
2018-08-03T08:16:34.318Z,9.27
2018-08-03T08:19:02.760Z,9.23
2018-08-03T08:21:31.006Z,9.37
2018-08-03T08:23:59.209Z,9.50
2018-08-03T08:26:27.521Z,8.00
2018-08-03T08:28:55.733Z,8.67
2018-08-03T08:31:23.970Z,8.60
2018-08-03T08:33:52.733Z,8.97
2018-08-03T08:36:20.911Z,8.47
2018-08-03T08:38:49.133Z,8.80
2018-08-03T08:41:17.342Z,9.00
2018-08-03T08:43:45.612Z,7.83
2018-08-03T08:46:13.797Z,8.67
2018-08-03T08:48:41.998Z,9.27
2018-08-03T08:51:10.206Z,8.60
2018-08-03T08:53:38.428Z,9.23
2018-08-03T08:56:06.700Z,8.77
2018-08-03T08:58:34.932Z,9.37
2018-08-03T09:01:03.173Z,9.07
2018-08-03T09:03:31.386Z,8.67
2018-08-03T09:05:59.646Z,8.50
2018-08-03T09:08:27.943Z,8.50
2018-08-03T09:10:56.152Z,9.13
2018-08-03T09:13:24.398Z,8.63
2018-08-03T09:15:52.606Z,9.30
2018-08-03T09:18:20.967Z,8.63
2018-08-03T09:20:49.111Z,8.73
2018-08-03T09:23:17.298Z,8.80
2018-08-03T09:25:45.526Z,8.93
2018-08-03T09:28:14.816Z,9.10
2018-08-03T09:30:43.026Z,9.10
2018-08-03T09:33:11.223Z,8.57
2018-08-03T09:35:39.405Z,9.63
2018-08-03T09:38:07.381Z,8.67
2018-08-03T09:40:35.559Z,8.30
2018-08-03T09:43:03.841Z,8.30
2018-08-03T09:45:32.051Z,9.13
2018-08-03T09:48:00.350Z,8.53
2018-08-03T09:50:28.550Z,9.10
2018-08-03T09:52:56.760Z,9.07
2018-08-03T09:55:24.957Z,8.70
2018-08-03T09:57:54.158Z,8.30
2018-08-03T10:00:27.691Z,8.43
2018-08-03T10:02:56.009Z,8.73
2018-08-03T10:05:24.207Z,8.20
2018-08-03T10:07:52.465Z,8.57
2018-08-03T10:10:20.626Z,9.50
2018-08-03T10:12:48.856Z,8.50
2018-08-03T10:15:17.102Z,8.67
2018-08-03T10:17:45.348Z,7.77
2018-08-03T10:20:13.554Z,9.40
2018-08-03T10:22:41.737Z,9.27
2018-08-03T10:25:09.970Z,8.73
2018-08-03T10:27:38.391Z,7.40
2018-08-03T10:30:06.973Z,8.20
2018-08-03T10:32:35.787Z,8.00
2018-08-03T10:35:04.926Z,8.60
2018-08-03T10:37:32.853Z,7.57
2018-08-03T10:40:01.834Z,9.53
2018-08-03T10:42:30.016Z,8.60
2018-08-03T10:44:57.953Z,8.77
2018-08-03T10:47:26.175Z,8.83
2018-08-03T10:49:54.378Z,7.60
2018-08-03T10:52:22.565Z,7.10
2018-08-03T10:54:50.785Z,7.73
2018-08-03T10:57:18.954Z,8.50
2018-08-03T10:59:47.122Z,7.73
2018-08-03T11:02:15.375Z,8.40
2018-08-03T11:04:43.528Z,7.50
2018-08-03T11:07:11.778Z,8.67
2018-08-03T11:09:40.010Z,7.37
2018-08-03T11:12:08.170Z,6.67
2018-08-03T11:14:37.458Z,7.67
2018-08-03T11:17:05.754Z,8.67
2018-08-03T11:19:34.012Z,7.10
2018-08-03T11:22:02.250Z,8.23
2018-08-03T11:24:30.458Z,7.10
2018-08-03T11:26:59.282Z,8.90
2018-08-03T11:29:27.518Z,8.17
2018-08-03T11:31:55.797Z,8.90
2018-08-03T11:34:24.045Z,7.73
2018-08-03T11:36:52.271Z,8.07
2018-08-03T11:39:20.502Z,7.50
2018-08-03T11:41:48.704Z,7.97
2018-08-03T11:44:16.953Z,8.07
2018-08-03T11:46:45.576Z,7.97
2018-08-03T11:49:13.786Z,8.60
2018-08-03T11:51:42.041Z,7.63
2018-08-03T11:54:10.450Z,7.17
2018-08-03T11:56:38.647Z,7.53
2018-08-03T11:59:06.826Z,7.93
2018-08-03T12:01:35.028Z,7.90
2018-08-03T12:04:03.254Z,7.30
2018-08-03T12:06:31.485Z,8.13
2018-08-03T12:08:59.691Z,7.73
2018-08-03T12:11:28.002Z,7.43
2018-08-03T12:13:56.165Z,8.07
2018-08-03T12:16:24.466Z,7.90
2018-08-03T12:18:53.681Z,7.60
2018-08-03T12:21:21.933Z,7.93
2018-08-03T12:23:50.191Z,7.80
2018-08-03T12:26:18.461Z,9.27
2018-08-03T12:28:46.666Z,8.00
2018-08-03T12:31:15.051Z,7.87
2018-08-03T12:33:43.234Z,7.50
2018-08-03T12:36:12.432Z,7.43
2018-08-03T12:38:40.666Z,7.83
2018-08-03T12:41:08.865Z,7.67
2018-08-03T12:43:37.071Z,7.33
2018-08-03T12:46:05.310Z,8.20
2018-08-03T12:48:33.594Z,7.50
2018-08-03T12:51:01.792Z,7.43
2018-08-03T12:53:30.026Z,7.90
2018-08-03T12:55:58.253Z,6.80
2018-08-03T12:58:26.457Z,8.50
2018-08-03T13:00:54.667Z,8.23
2018-08-03T13:03:23.521Z,7.87
2018-08-03T13:05:51.722Z,7.60
2018-08-03T13:08:20.083Z,8.17
2018-08-03T13:10:48.181Z,7.37
2018-08-03T13:13:16.492Z,7.47
2018-08-03T13:15:44.422Z,8.00
2018-08-03T13:18:12.808Z,8.27
2018-08-03T13:20:44.581Z,7.70
2018-08-03T13:23:12.874Z,7.93
2018-08-03T13:25:41.094Z,7.60
2018-08-03T13:28:09.267Z,8.90
2018-08-03T13:30:37.482Z,8.37
2018-08-03T13:33:05.931Z,7.70
2018-08-03T13:35:34.177Z,7.70
2018-08-03T13:38:02.432Z,8.30
2018-08-03T13:40:30.663Z,7.80
2018-08-03T13:42:59.870Z,8.07
2018-08-03T13:45:28.046Z,8.00
2018-08-03T13:47:55.984Z,7.43
2018-08-03T13:50:24.206Z,7.50
2018-08-03T13:52:52.414Z,7.63
2018-08-03T13:55:20.645Z,8.00
2018-08-03T13:57:48.944Z,8.40
2018-08-03T14:00:17.204Z,7.90
2018-08-03T14:02:45.486Z,8.33
2018-08-03T14:05:13.698Z,7.90
2018-08-03T14:07:41.878Z,8.30
2018-08-03T14:10:10.571Z,7.57
2018-08-03T14:12:38.765Z,7.97
2018-08-03T14:15:07.516Z,7.67
2018-08-03T14:17:35.770Z,8.30
2018-08-03T14:20:04.479Z,7.50
2018-08-03T14:22:32.704Z,7.73
2018-08-03T14:25:00.958Z,6.87
2018-08-03T14:27:29.118Z,7.87
2018-08-03T14:29:57.315Z,7.80
2018-08-03T14:32:25.511Z,9.20
2018-08-03T14:34:53.698Z,7.67
2018-08-03T14:37:21.923Z,7.80
2018-08-03T14:39:50.080Z,8.47
2018-08-03T14:42:18.250Z,8.20
2018-08-03T14:44:46.555Z,6.93
2018-08-03T14:47:14.729Z,8.00
2018-08-03T14:49:42.913Z,6.33
2018-08-03T14:52:11.093Z,7.23
2018-08-03T14:54:39.262Z,7.17
2018-08-03T14:57:07.575Z,8.17
2018-08-03T14:59:35.798Z,7.67
2018-08-03T15:02:03.972Z,6.70
2018-08-03T15:04:32.206Z,7.70
2018-08-03T15:07:00.394Z,7.43
2018-08-03T15:09:28.609Z,7.50
2018-08-03T15:11:56.811Z,7.80
2018-08-03T15:14:25.018Z,7.87
2018-08-03T15:16:53.229Z,7.23
2018-08-03T15:19:21.417Z,6.73
2018-08-03T15:21:50.834Z,7.77
2018-08-03T15:24:19.037Z,7.43
2018-08-03T15:26:47.235Z,7.23
2018-08-03T15:29:15.489Z,7.23
2018-08-03T15:31:43.794Z,7.20
2018-08-03T15:34:12.002Z,7.47
2018-08-03T15:36:40.307Z,7.40
2018-08-03T15:39:09.830Z,7.47
2018-08-03T15:41:38.053Z,7.07
2018-08-03T15:44:07.357Z,7.23
2018-08-03T15:46:35.589Z,7.60
2018-08-03T15:49:03.984Z,7.10
2018-08-03T15:51:31.928Z,6.90
2018-08-03T15:54:00.331Z,8.20
2018-08-03T15:56:28.521Z,7.77
2018-08-03T15:58:56.735Z,7.50
2018-08-03T16:01:25.018Z,6.83
2018-08-03T16:03:53.285Z,6.63
2018-08-03T16:06:21.484Z,7.27
2018-08-03T16:08:49.561Z,6.40
2018-08-03T16:11:17.836Z,7.07
2018-08-03T16:13:46.107Z,6.80
2018-08-03T16:16:14.313Z,6.90
2018-08-03T16:18:42.699Z,6.50
2018-08-03T16:21:11.315Z,7.50
2018-08-03T16:23:39.515Z,7.47
2018-08-03T16:26:07.785Z,7.67
2018-08-03T16:28:36.015Z,7.17
2018-08-03T16:31:04.526Z,7.43
2018-08-03T16:33:32.725Z,7.80
2018-08-03T16:36:01.010Z,7.20
2018-08-03T16:38:29.209Z,7.17
2018-08-03T16:40:57.505Z,8.80
2018-08-03T16:43:25.825Z,7.67
2018-08-03T16:45:55.101Z,8.00
2018-08-03T16:48:23.294Z,6.87
2018-08-03T16:50:51.534Z,7.90
2018-08-03T16:53:19.746Z,7.23
2018-08-03T16:55:47.939Z,7.90
2018-08-03T16:58:16.151Z,8.07
2018-08-03T17:00:44.410Z,8.27
2018-08-03T17:03:13.175Z,8.43
2018-08-03T17:05:41.646Z,8.40
2018-08-03T17:08:09.910Z,8.63
2018-08-03T17:10:39.193Z,9.00
2018-08-03T17:13:07.158Z,9.37
2018-08-03T17:15:36.476Z,8.50
2018-08-03T17:18:04.581Z,9.63
2018-08-03T17:20:33.779Z,9.27
2018-08-03T17:23:02.070Z,9.87
2018-08-03T17:25:31.737Z,8.73
2018-08-03T17:28:00.054Z,8.97
2018-08-03T17:30:28.258Z,8.80
2018-08-03T17:32:56.490Z,8.67
2018-08-03T17:35:24.854Z,9.77
2018-08-03T17:37:53.064Z,9.00
2018-08-03T17:40:22.435Z,9.73
2018-08-03T17:42:51.861Z,9.70
2018-08-03T17:45:20.046Z,11.20
2018-08-03T17:47:48.353Z,10.17
2018-08-03T17:50:16.311Z,8.90
2018-08-03T17:52:44.265Z,9.37
2018-08-03T17:55:12.293Z,9.73
2018-08-03T17:57:40.629Z,9.30
2018-08-03T18:00:08.573Z,9.80
2018-08-03T18:02:36.969Z,10.23
2018-08-03T18:05:05.534Z,8.97
2018-08-03T18:07:33.800Z,10.67
2018-08-03T18:10:02.071Z,13.43
2018-08-03T18:12:30.354Z,10.30
2018-08-03T18:14:58.610Z,10.57
2018-08-03T18:17:26.785Z,11.17
2018-08-03T18:19:55.008Z,11.30
2018-08-03T18:22:22.966Z,9.60
2018-08-03T18:24:51.182Z,8.90
2018-08-03T18:27:19.343Z,8.93
2018-08-03T18:29:48.686Z,9.47
2018-08-03T18:32:16.923Z,9.43
2018-08-03T18:34:45.175Z,10.70
2018-08-03T18:37:13.418Z,9.20
2018-08-03T18:39:41.605Z,10.37
2018-08-03T18:42:09.813Z,10.77
2018-08-03T18:44:38.129Z,10.40
2018-08-03T18:47:06.366Z,10.53
2018-08-03T18:49:34.597Z,9.90
2018-08-03T18:52:02.823Z,10.00
2018-08-03T18:54:31.046Z,10.20
2018-08-03T18:56:59.259Z,10.53
2018-08-03T18:59:27.431Z,11.80
2018-08-03T19:01:55.627Z,10.90
2018-08-03T19:04:23.914Z,10.07
2018-08-03T19:06:52.141Z,10.27
2018-08-03T19:09:20.151Z,11.03
2018-08-03T19:11:48.372Z,10.23
2018-08-03T19:14:16.634Z,9.93
2018-08-03T19:16:44.910Z,9.70
2018-08-03T19:19:13.138Z,11.17
2018-08-03T19:21:42.045Z,10.80
2018-08-03T19:24:10.397Z,11.43
2018-08-03T19:26:38.601Z,11.00
2018-08-03T19:29:06.937Z,10.77
2018-08-03T19:31:35.267Z,10.97
2018-08-03T19:34:03.501Z,11.40
2018-08-03T19:36:31.515Z,10.60
2018-08-03T19:39:02.801Z,10.23
2018-08-03T19:41:31.054Z,11.60
2018-08-03T19:43:59.259Z,11.70
2018-08-03T19:46:27.482Z,11.97
2018-08-03T19:48:55.701Z,11.20
2018-08-03T19:51:23.878Z,11.10
2018-08-03T19:53:52.134Z,10.87
2018-08-03T19:56:20.335Z,11.40
2018-08-03T19:58:48.688Z,10.77
2018-08-03T20:01:16.814Z,11.97
2018-08-03T20:03:44.830Z,11.73
2018-08-03T20:06:13.107Z,13.27
2018-08-03T20:08:41.950Z,12.27
2018-08-03T20:11:10.272Z,13.00
2018-08-03T20:13:38.909Z,12.60
2018-08-03T20:16:07.245Z,12.80
2018-08-03T20:18:35.488Z,15.43
2018-08-03T20:21:03.789Z,13.40
2018-08-03T20:23:32.448Z,14.33
2018-08-03T20:26:00.634Z,14.27
2018-08-03T20:28:29.745Z,13.53
2018-08-03T20:30:58.442Z,13.70
2018-08-03T20:33:26.705Z,15.60
2018-08-03T20:35:54.919Z,13.37
2018-08-03T20:38:23.335Z,13.47
2018-08-03T20:40:51.579Z,14.70
2018-08-03T20:43:19.871Z,13.30
2018-08-03T20:45:48.078Z,14.10
2018-08-03T20:48:16.363Z,14.83
2018-08-03T20:50:44.561Z,14.83
2018-08-03T20:53:12.743Z,14.40
2018-08-03T20:55:40.925Z,15.50
2018-08-03T20:58:09.241Z,13.60
2018-08-03T21:00:37.474Z,15.03
2018-08-03T21:03:05.750Z,14.70
2018-08-03T21:05:33.969Z,18.80
2018-08-03T21:08:02.217Z,16.87
2018-08-03T21:10:30.397Z,15.47
2018-08-03T21:12:58.678Z,15.70
2018-08-03T21:15:26.900Z,16.37
2018-08-03T21:17:55.166Z,18.30
2018-08-03T21:20:23.407Z,16.73
2018-08-03T21:22:51.630Z,18.70
2018-08-03T21:25:19.935Z,18.53
2018-08-03T21:27:48.152Z,17.83
2018-08-03T21:30:16.440Z,16.57
2018-08-03T21:32:45.682Z,16.10
2018-08-03T21:35:13.897Z,17.83
2018-08-03T21:37:42.147Z,17.07
2018-08-03T21:40:10.434Z,17.17
2018-08-03T21:42:38.734Z,17.90
2018-08-03T21:45:07.017Z,16.13
2018-08-03T21:47:35.302Z,16.87
2018-08-03T21:50:03.648Z,16.50
2018-08-03T21:52:32.066Z,16.90
2018-08-03T21:55:00.334Z,16.47
2018-08-03T21:57:28.521Z,17.93
2018-08-03T21:59:56.928Z,16.80
2018-08-03T22:02:25.147Z,15.60
2018-08-03T22:04:53.429Z,15.60
2018-08-03T22:07:21.656Z,17.40
2018-08-03T22:09:51.121Z,14.77
2018-08-03T22:12:19.368Z,18.50
2018-08-03T22:14:48.654Z,16.50
2018-08-03T22:17:16.906Z,16.43
2018-08-03T22:19:45.171Z,17.50
2018-08-03T22:22:14.578Z,17.30
2018-08-03T22:24:47.391Z,16.90
2018-08-03T22:27:15.582Z,17.33
2018-08-03T22:29:43.782Z,17.70
2018-08-03T22:32:16.912Z,17.60
2018-08-03T22:34:45.090Z,17.90
2018-08-03T22:37:13.473Z,17.33
2018-08-03T22:39:42.814Z,16.67
2018-08-03T22:42:18.840Z,17.40
2018-08-03T22:44:47.070Z,17.10
2018-08-03T22:47:15.232Z,17.33
2018-08-03T22:49:43.446Z,16.50
2018-08-03T22:52:11.693Z,17.57
2018-08-03T22:54:39.891Z,16.97
2018-08-03T22:57:08.069Z,16.20
2018-08-03T22:59:36.251Z,15.30
2018-08-03T23:02:07.026Z,16.07
2018-08-03T23:04:35.350Z,16.90
2018-08-03T23:07:03.506Z,18.43
2018-08-03T23:09:31.684Z,17.00
2018-08-03T23:12:00.669Z,18.53
2018-08-03T23:14:28.846Z,18.93
2018-08-03T23:16:57.055Z,18.00
2018-08-03T23:19:25.329Z,17.57
2018-08-03T23:21:53.505Z,18.47
2018-08-03T23:24:21.664Z,17.00
2018-08-03T23:26:49.886Z,17.90
2018-08-03T23:29:18.216Z,18.57
2018-08-03T23:31:46.389Z,18.97
2018-08-03T23:34:14.582Z,17.13
2018-08-03T23:36:42.833Z,17.13
2018-08-03T23:39:11.011Z,18.40
2018-08-03T23:41:39.244Z,18.60
2018-08-03T23:44:08.432Z,17.33
2018-08-03T23:46:36.655Z,19.37
2018-08-03T23:49:04.901Z,18.90
2018-08-03T23:51:33.098Z,18.50
2018-08-03T23:54:01.310Z,19.97
2018-08-03T23:56:29.479Z,19.63
2018-08-03T23:58:57.678Z,19.50
